Banyo Airport


Codes: FKAB/
Name: Banyo Airport
City: Banyo
Country: Cameroon
Elevation: 3642 ft.

Photos at Banyo Airport


   Photos courtesy of SpottingLog. You can add your own sightings and photos by signing up for a free trial today.



No photos found.

Weather at Banyo Airport


Time (UTC)DescriptionTempratureWindCloud coverageVisibilityPressureHumidity
13-Jun-2024 03:00Broken Clouds18°C2 mph, NW64%10000m1015hPa90%
13-Jun-2024 06:00Broken Clouds19°C2 mph, W64%10000m1015hPa89%
13-Jun-2024 09:00Scattered Clouds24°C4 mph, E49%10000m1015hPa70%
13-Jun-2024 12:00Light Rain29°C4 mph, E34%10000m1012hPa47%
13-Jun-2024 15:00Light Rain22°C2 mph, SE84%10000m1012hPa84%
13-Jun-2024 18:00Light Rain20°C4 mph, NW75%10000m1013hPa93%
13-Jun-2024 21:00Light Rain19°C2 mph, W100%10000m1015hPa92%
14-Jun-2024 00:00Light Rain19°C2 mph, NW100%10000m1014hPa92%
14-Jun-2024 03:00Overcast Clouds18°C0 mph, W96%10000m1013hPa92%
14-Jun-2024 06:00Light Rain19°C2 mph, NW98%10000m1016hPa96%
14-Jun-2024 09:00Light Rain24°C2 mph, SE100%9925m1016hPa81%
14-Jun-2024 12:00Light Rain26°C2 mph, SE100%7851m1013hPa72%
14-Jun-2024 15:00Moderate Rain23°C0 mph, NW99%9912m1011hPa86%
14-Jun-2024 18:00Light Rain20°C4 mph, W98%10000m1012hPa91%
14-Jun-2024 21:00Moderate Rain19°C4 mph, N100%10000m1015hPa98%
15-Jun-2024 00:00Light Rain19°C2 mph, SW100%10000m1014hPa96%
15-Jun-2024 03:00Light Rain18°C0 mph, N100%10000m1013hPa96%
15-Jun-2024 06:00Light Rain18°C2 mph, NW99%10000m1014hPa96%
15-Jun-2024 09:00Light Rain19°C4 mph, NW100%10000m1016hPa94%
15-Jun-2024 12:00Light Rain24°C2 mph, NE100%6269m1012hPa80%
15-Jun-2024 15:00Moderate Rain20°C4 mph, NE100%10000m1012hPa93%
15-Jun-2024 18:00Light Rain19°C2 mph, NW100%10000m1013hPa96%
15-Jun-2024 21:00Broken Clouds18°C2 mph, W78%10000m1014hPa95%
16-Jun-2024 00:00Overcast Clouds18°C2 mph, W87%10000m1013hPa92%
16-Jun-2024 03:00Overcast Clouds18°C2 mph, NW100%10000m1013hPa94%
16-Jun-2024 06:00Overcast Clouds19°C2 mph, NW90%10000m1014hPa93%
16-Jun-2024 09:00Light Rain21°C2 mph, SE97%10000m1014hPa87%
16-Jun-2024 12:00Light Rain24°C2 mph, E92%10000m1012hPa78%
16-Jun-2024 15:00Moderate Rain23°C2 mph, E77%10000m1011hPa85%
16-Jun-2024 18:00Light Rain19°C2 mph, SE89%10000m1013hPa95%
16-Jun-2024 21:00Light Rain19°C2 mph, W91%10000m1014hPa95%
17-Jun-2024 00:00Overcast Clouds18°C2 mph, W95%10000m1014hPa95%
17-Jun-2024 03:00Light Rain18°C2 mph, W100%10000m1014hPa96%
17-Jun-2024 06:00Moderate Rain19°C2 mph, N100%10000m1015hPa97%
17-Jun-2024 09:00Moderate Rain23°C2 mph, NE93%5430m1015hPa84%
17-Jun-2024 12:00Moderate Rain24°C4 mph, NE96%8578m1013hPa80%
17-Jun-2024 15:00Moderate Rain23°C2 mph, N95%8998m1012hPa86%
17-Jun-2024 18:00Light Rain20°C2 mph, W96%10000m1013hPa95%
17-Jun-2024 21:00Broken Clouds18°C4 mph, W55%10000m1014hPa97%
18-Jun-2024 00:00Broken Clouds18°C2 mph, W77%10000m1014hPa96%